createdAt,value
2023-05-09T00:00:19.783Z,3.07
2023-05-09T00:01:19.914Z,2.79
2023-05-09T00:02:19.875Z,2.91
2023-05-09T00:03:19.877Z,3.13
2023-05-09T00:04:19.919Z,2.89
2023-05-09T00:05:19.865Z,3.21
2023-05-09T00:06:19.980Z,2.92
2023-05-09T00:07:19.983Z,2.63
2023-05-09T00:08:19.987Z,3.47
2023-05-09T00:09:19.979Z,2.68
2023-05-09T00:10:19.974Z,2.28
2023-05-09T00:11:19.996Z,2.65
2023-05-09T00:12:20.001Z,2.61
2023-05-09T00:13:20.086Z,2.83
2023-05-09T00:14:20.017Z,2.77
2023-05-09T00:15:20.019Z,3.16
2023-05-09T00:16:20.113Z,3.11
2023-05-09T00:17:20.203Z,2.98
2023-05-09T00:18:20.084Z,3.03
2023-05-09T00:19:20.092Z,3.26
2023-05-09T00:20:20.085Z,2.74
2023-05-09T00:21:20.118Z,2.95
2023-05-09T00:22:20.090Z,2.83
2023-05-09T00:23:20.175Z,2.71
2023-05-09T00:24:20.169Z,2.49
2023-05-09T00:25:20.163Z,3.37
2023-05-09T00:26:20.185Z,3.03
2023-05-09T00:27:20.182Z,2.84
2023-05-09T00:28:20.174Z,2.51
2023-05-09T00:29:20.225Z,2.37
2023-05-09T00:30:20.334Z,2.42
2023-05-09T00:31:20.456Z,3.47
2023-05-09T00:32:20.460Z,2.97
2023-05-09T00:33:20.509Z,2.62
2023-05-09T00:34:20.416Z,2.63
2023-05-09T00:35:20.409Z,2.84
2023-05-09T00:36:20.557Z,2.65
2023-05-09T00:37:20.462Z,3.07
2023-05-09T00:38:20.471Z,2.93
2023-05-09T00:39:20.490Z,3.25
2023-05-09T00:40:20.463Z,2.68
2023-05-09T00:41:20.457Z,3.21
2023-05-09T00:42:20.491Z,3.02
2023-05-09T00:43:20.479Z,3.19
2023-05-09T00:44:20.470Z,2.70
2023-05-09T00:45:20.492Z,2.60
2023-05-09T00:46:20.503Z,3.24
2023-05-09T00:47:20.557Z,2.83
2023-05-09T00:48:20.551Z,2.87
2023-05-09T00:49:20.616Z,2.66
2023-05-09T00:50:20.519Z,2.86
2023-05-09T00:51:20.520Z,3.02
2023-05-09T00:52:20.520Z,3.02
2023-05-09T00:53:20.530Z,2.92
2023-05-09T00:54:20.497Z,3.16
2023-05-09T00:55:20.513Z,2.84
2023-05-09T00:56:20.530Z,3.18
2023-05-09T00:57:20.520Z,2.80
2023-05-09T00:58:20.596Z,3.16
2023-05-09T00:59:20.702Z,2.18
2023-05-09T01:00:20.794Z,2.58
2023-05-09T01:01:20.928Z,2.77
2023-05-09T01:02:20.901Z,2.73
2023-05-09T01:03:20.957Z,2.87
2023-05-09T01:04:20.884Z,3.13
2023-05-09T01:05:20.941Z,3.16
2023-05-09T01:06:20.895Z,2.88
2023-05-09T01:07:20.936Z,3.13
2023-05-09T01:08:20.976Z,2.46
2023-05-09T01:09:20.976Z,2.82
2023-05-09T01:10:21.050Z,3.43
2023-05-09T01:11:20.988Z,3.08
2023-05-09T01:12:20.970Z,3.35
2023-05-09T01:13:21.104Z,3.15
2023-05-09T01:14:21.149Z,2.96
2023-05-09T01:15:21.239Z,2.90
2023-05-09T01:16:21.396Z,3.21
2023-05-09T01:17:21.436Z,3.36
2023-05-09T01:18:21.435Z,2.98
2023-05-09T01:19:21.434Z,2.88
2023-05-09T01:20:21.441Z,2.75
2023-05-09T01:21:21.527Z,2.61
2023-05-09T01:22:21.446Z,3.24
2023-05-09T01:23:21.525Z,3.10
2023-05-09T01:24:21.515Z,2.95
2023-05-09T01:25:21.513Z,2.84
2023-05-09T01:26:21.532Z,3.25
2023-05-09T01:27:21.520Z,3.06
2023-05-09T01:28:21.525Z,2.74
2023-05-09T01:29:21.579Z,2.64
2023-05-09T01:30:21.685Z,2.70
2023-05-09T01:31:21.829Z,2.87
2023-05-09T01:32:21.772Z,3.09
2023-05-09T01:33:21.754Z,2.81
2023-05-09T01:34:21.773Z,2.61
2023-05-09T01:35:21.758Z,3.18
2023-05-09T01:36:21.815Z,3.18
2023-05-09T01:37:21.930Z,3.31
2023-05-09T01:38:21.961Z,2.85
2023-05-09T01:39:22.042Z,2.70
2023-05-09T01:40:22.056Z,2.61
2023-05-09T01:41:22.061Z,2.98
2023-05-09T01:42:22.036Z,3.01
2023-05-09T01:43:22.066Z,3.14
2023-05-09T01:44:22.056Z,2.95
2023-05-09T01:45:22.137Z,3.14
2023-05-09T01:46:22.277Z,2.71
2023-05-09T01:47:22.335Z,2.54
2023-05-09T01:48:22.341Z,3.18
2023-05-09T01:49:22.338Z,2.68
2023-05-09T01:50:22.388Z,2.88
2023-05-09T01:51:22.352Z,3.62
2023-05-09T01:52:22.356Z,2.84
2023-05-09T01:53:22.509Z,2.31
2023-05-09T01:54:22.437Z,2.54
2023-05-09T01:55:22.432Z,3.33
2023-05-09T01:56:22.440Z,3.27
2023-05-09T01:57:22.455Z,2.89
2023-05-09T01:58:22.478Z,2.64
2023-05-09T01:59:22.554Z,3.18
2023-05-09T02:00:22.644Z,2.69
2023-05-09T02:01:22.794Z,3.24
2023-05-09T02:02:22.882Z,2.96
2023-05-09T02:03:23.070Z,2.63
2023-05-09T02:04:23.044Z,2.62
2023-05-09T02:05:23.128Z,2.66
2023-05-09T02:06:23.137Z,2.96
2023-05-09T02:07:23.144Z,2.23
2023-05-09T02:08:23.149Z,2.67
2023-05-09T02:09:23.228Z,2.68
2023-05-09T02:10:23.153Z,2.51
2023-05-09T02:11:23.235Z,2.86
2023-05-09T02:12:23.332Z,2.56
2023-05-09T02:13:23.448Z,3.34
2023-05-09T02:14:23.541Z,3.25
2023-05-09T02:15:23.616Z,2.55
2023-05-09T02:16:23.735Z,3.34
2023-05-09T02:17:23.786Z,3.16
2023-05-09T02:18:23.725Z,2.88
2023-05-09T02:19:23.728Z,3.26
2023-05-09T02:20:23.761Z,2.93
2023-05-09T02:21:23.771Z,2.76
2023-05-09T02:22:23.787Z,3.08
2023-05-09T02:23:23.782Z,3.06
2023-05-09T02:24:23.794Z,2.49
2023-05-09T02:25:23.808Z,2.48
2023-05-09T02:26:23.805Z,2.58
2023-05-09T02:27:23.894Z,2.75
2023-05-09T02:28:23.997Z,2.85
2023-05-09T02:29:24.090Z,3.12
2023-05-09T02:30:24.123Z,2.60
2023-05-09T02:31:24.174Z,2.62
2023-05-09T02:32:24.122Z,3.04
2023-05-09T02:33:24.157Z,2.41
2023-05-09T02:34:24.115Z,2.82
2023-05-09T02:35:24.229Z,2.78
2023-05-09T02:36:24.354Z,3.46
2023-05-09T02:37:24.423Z,2.74
2023-05-09T02:38:24.492Z,2.98
2023-05-09T02:39:24.504Z,2.89
2023-05-09T02:40:24.520Z,2.76
2023-05-09T02:41:24.615Z,3.22
2023-05-09T02:42:24.574Z,2.71
2023-05-09T02:43:24.565Z,2.86
2023-05-09T02:44:24.573Z,2.95
2023-05-09T02:45:24.596Z,2.39
2023-05-09T02:46:24.664Z,2.51
2023-05-09T02:47:24.604Z,2.76
2023-05-09T02:48:24.633Z,3.25
2023-05-09T02:49:32.014Z,2.84
2023-05-09T02:50:25.599Z,2.65
2023-05-09T02:51:24.604Z,2.94
2023-05-09T02:52:24.589Z,2.79
2023-05-09T02:53:24.588Z,2.83
2023-05-09T02:54:24.571Z,3.25
2023-05-09T02:55:24.603Z,2.62
2023-05-09T02:56:24.578Z,2.57
2023-05-09T02:57:24.635Z,3.03
2023-05-09T02:58:24.560Z,2.99
2023-05-09T02:59:24.558Z,2.82
2023-05-09T03:00:24.553Z,3.11
2023-05-09T03:01:24.560Z,3.21
2023-05-09T03:02:24.584Z,2.90
2023-05-09T03:03:24.652Z,3.23
2023-05-09T03:04:24.511Z,3.30
2023-05-09T03:05:24.507Z,3.05
2023-05-09T03:06:24.512Z,3.08
2023-05-09T03:07:24.500Z,3.19
2023-05-09T03:08:24.504Z,2.87
2023-05-09T03:09:24.606Z,3.04
2023-05-09T03:10:24.706Z,2.81
2023-05-09T03:11:24.697Z,2.64
2023-05-09T03:12:24.727Z,2.69
2023-05-09T03:13:24.904Z,3.06
2023-05-09T03:14:24.740Z,3.11
2023-05-09T03:15:24.740Z,2.49
2023-05-09T03:16:24.907Z,3.09
2023-05-09T03:17:24.900Z,2.91
2023-05-09T03:18:24.889Z,2.84
2023-05-09T03:19:24.899Z,2.85
2023-05-09T03:20:24.922Z,2.59
2023-05-09T03:21:24.936Z,2.73
2023-05-09T03:22:25.021Z,2.66
2023-05-09T03:23:25.025Z,2.84
2023-05-09T03:24:25.021Z,2.96
2023-05-09T03:25:25.044Z,2.87
2023-05-09T03:26:25.057Z,2.68
2023-05-09T03:27:25.091Z,2.70
2023-05-09T03:28:25.207Z,2.93
2023-05-09T03:29:25.227Z,2.60
2023-05-09T03:30:25.150Z,2.63
2023-05-09T03:31:25.185Z,2.41
2023-05-09T03:32:25.195Z,3.02
2023-05-09T03:33:25.194Z,2.57
2023-05-09T03:34:25.216Z,2.25
2023-05-09T03:35:25.228Z,3.36
2023-05-09T03:36:25.238Z,3.19
2023-05-09T03:37:27.047Z,2.60
2023-05-09T03:38:25.259Z,2.62
2023-05-09T03:39:25.267Z,2.69
2023-05-09T03:40:25.283Z,2.96
2023-05-09T03:41:25.296Z,2.79
2023-05-09T03:42:25.289Z,2.80
2023-05-09T03:43:25.308Z,2.81
2023-05-09T03:44:25.329Z,2.97
2023-05-09T03:45:25.416Z,2.55
2023-05-09T03:46:25.450Z,2.65
2023-05-09T03:47:25.446Z,2.83
2023-05-09T03:48:25.479Z,2.51
2023-05-09T03:49:25.469Z,2.35
2023-05-09T03:50:25.481Z,2.48
2023-05-09T03:51:25.500Z,2.80
2023-05-09T03:52:25.533Z,2.40
2023-05-09T03:53:25.540Z,2.67
2023-05-09T03:54:25.547Z,2.65
2023-05-09T03:55:25.567Z,2.62
2023-05-09T03:56:25.569Z,3.22
2023-05-09T03:57:25.658Z,2.82
2023-05-09T03:58:25.675Z,2.88
2023-05-09T03:59:25.689Z,2.69
2023-05-09T04:00:25.713Z,2.83
2023-05-09T04:01:25.829Z,3.40
2023-05-09T04:02:25.827Z,3.02
2023-05-09T04:03:25.815Z,2.69
2023-05-09T04:04:25.793Z,2.76
2023-05-09T04:05:25.805Z,2.75
2023-05-09T04:06:25.840Z,2.64
2023-05-09T04:07:25.845Z,2.38
2023-05-09T04:08:25.875Z,2.94
2023-05-09T04:09:25.876Z,2.65
2023-05-09T04:10:25.905Z,2.69
2023-05-09T04:11:25.922Z,2.83
2023-05-09T04:12:25.934Z,3.03
2023-05-09T04:13:26.157Z,3.00
2023-05-09T04:14:25.949Z,3.04
2023-05-09T04:15:25.992Z,2.74
2023-05-09T04:16:26.038Z,2.89
2023-05-09T04:17:26.130Z,2.65
2023-05-09T04:18:26.053Z,2.85
2023-05-09T04:19:26.085Z,2.38
2023-05-09T04:20:26.117Z,2.27
2023-05-09T04:21:26.144Z,3.07
2023-05-09T04:22:26.145Z,2.62
2023-05-09T04:23:26.173Z,2.67
2023-05-09T04:24:26.166Z,2.60
2023-05-09T04:25:26.224Z,2.80
2023-05-09T04:26:26.228Z,2.99
2023-05-09T04:27:26.260Z,2.89
2023-05-09T04:28:26.271Z,2.96
2023-05-09T04:29:26.292Z,2.45
2023-05-09T04:30:26.338Z,2.59
2023-05-09T04:31:26.402Z,2.37
2023-05-09T04:32:26.411Z,2.60
2023-05-09T04:33:26.469Z,2.77
2023-05-09T04:34:26.400Z,2.59
2023-05-09T04:35:26.419Z,3.14
2023-05-09T04:36:26.438Z,2.44
2023-05-09T04:37:26.468Z,2.72
2023-05-09T04:38:26.483Z,3.08
2023-05-09T04:39:26.521Z,2.83
2023-05-09T04:40:26.994Z,2.85
2023-05-09T04:41:26.563Z,2.27
2023-05-09T04:42:26.564Z,3.07
2023-05-09T04:43:26.615Z,2.47
2023-05-09T04:44:26.629Z,3.22
2023-05-09T04:45:26.633Z,2.40
2023-05-09T04:46:26.709Z,2.24
2023-05-09T04:47:26.691Z,2.82
2023-05-09T04:48:26.698Z,3.10
2023-05-09T04:49:26.780Z,2.68
2023-05-09T04:50:26.744Z,2.26
2023-05-09T04:51:26.752Z,2.80
2023-05-09T04:52:26.783Z,2.60
2023-05-09T04:53:26.802Z,3.06
2023-05-09T04:54:26.823Z,2.26
2023-05-09T04:55:26.838Z,2.72
2023-05-09T04:56:26.889Z,2.83
2023-05-09T04:57:26.885Z,2.35
2023-05-09T04:58:26.916Z,2.88
2023-05-09T04:59:26.944Z,2.85
2023-05-09T05:00:26.962Z,2.96
2023-05-09T05:01:27.028Z,2.68
2023-05-09T05:02:26.992Z,2.66
2023-05-09T05:03:27.012Z,2.44
2023-05-09T05:04:27.041Z,2.64
2023-05-09T05:05:27.604Z,2.77
2023-05-09T05:06:27.057Z,2.18
2023-05-09T05:07:27.108Z,3.35
2023-05-09T05:08:27.100Z,3.43
2023-05-09T05:09:27.115Z,2.48
2023-05-09T05:10:27.159Z,3.43
2023-05-09T05:11:27.159Z,3.51
2023-05-09T05:12:27.172Z,3.27
2023-05-09T05:13:27.307Z,3.83
2023-05-09T05:14:27.220Z,3.33
2023-05-09T05:15:27.234Z,3.66
2023-05-09T05:16:27.344Z,3.57
2023-05-09T05:17:27.302Z,2.91
2023-05-09T05:18:27.299Z,2.80
2023-05-09T05:19:27.339Z,2.84
2023-05-09T05:20:27.348Z,2.83
2023-05-09T05:21:27.436Z,2.74
2023-05-09T05:22:27.362Z,2.87
2023-05-09T05:23:27.770Z,2.60
2023-05-09T05:24:27.397Z,2.91
2023-05-09T05:25:27.425Z,3.14
2023-05-09T05:26:27.444Z,3.12
2023-05-09T05:27:27.456Z,2.86
2023-05-09T05:28:27.758Z,6.38
2023-05-09T05:29:27.495Z,12.19
2023-05-09T05:30:27.543Z,13.10
2023-05-09T05:31:27.681Z,15.89
2023-05-09T05:32:27.611Z,16.78
2023-05-09T05:33:27.763Z,17.71
2023-05-09T05:34:27.628Z,19.38
2023-05-09T05:35:27.680Z,18.57
2023-05-09T05:36:27.716Z,18.55
2023-05-09T05:37:28.338Z,18.49
2023-05-09T05:38:27.812Z,18.49
2023-05-09T05:39:27.848Z,20.23
2023-05-09T05:40:27.839Z,21.28
2023-05-09T05:41:27.860Z,22.92
2023-05-09T05:42:27.898Z,21.32
2023-05-09T05:43:27.885Z,19.47
2023-05-09T05:44:27.894Z,17.86
2023-05-09T05:45:27.919Z,19.40
2023-05-09T05:46:27.917Z,17.11
2023-05-09T05:47:27.947Z,17.41
2023-05-09T05:48:27.963Z,17.76
2023-05-09T05:49:28.042Z,16.09
2023-05-09T05:50:28.063Z,18.01
2023-05-09T05:51:28.115Z,16.01
2023-05-09T05:52:28.160Z,16.37
2023-05-09T05:53:29.814Z,15.27
2023-05-09T05:54:28.411Z,16.05
2023-05-09T05:55:28.461Z,16.25
2023-05-09T05:56:28.532Z,16.90
2023-05-09T05:57:28.567Z,16.14
2023-05-09T05:58:28.593Z,15.39
2023-05-09T05:59:28.616Z,14.75
2023-05-09T06:00:28.619Z,14.86
2023-05-09T06:01:28.640Z,15.07
2023-05-09T06:02:28.737Z,15.44
2023-05-09T06:03:28.822Z,13.99
2023-05-09T06:04:28.648Z,14.34
2023-05-09T06:05:28.690Z,13.36
2023-05-09T06:06:28.729Z,13.70
2023-05-09T06:07:28.800Z,13.00
2023-05-09T06:08:28.857Z,13.33
2023-05-09T06:09:28.998Z,13.44
2023-05-09T06:10:29.016Z,14.41
2023-05-09T06:11:29.035Z,12.41
2023-05-09T06:12:29.104Z,13.33
2023-05-09T06:13:29.294Z,11.97
2023-05-09T06:14:29.260Z,13.22
2023-05-09T06:15:29.235Z,11.77
2023-05-09T06:16:29.337Z,10.64
2023-05-09T06:17:29.348Z,11.21
2023-05-09T06:18:29.356Z,11.69
2023-05-09T06:19:29.410Z,11.71
2023-05-09T06:20:29.421Z,11.18
2023-05-09T06:21:29.468Z,10.50
2023-05-09T06:22:29.490Z,10.34
2023-05-09T06:23:29.509Z,9.55
2023-05-09T06:24:35.602Z,10.46
2023-05-09T06:25:30.633Z,9.36
2023-05-09T06:26:29.548Z,8.67
2023-05-09T06:27:29.547Z,10.47
2023-05-09T06:28:29.543Z,8.49
2023-05-09T06:29:29.546Z,9.37
2023-05-09T06:30:29.539Z,9.11
2023-05-09T06:31:29.541Z,10.05
2023-05-09T06:32:29.519Z,13.56
2023-05-09T06:33:29.506Z,15.19
2023-05-09T06:34:29.779Z,17.47
2023-05-09T06:35:29.467Z,18.15
2023-05-09T06:36:29.500Z,16.32
2023-05-09T06:37:29.459Z,14.49
2023-05-09T06:38:29.525Z,14.38
2023-05-09T06:39:29.573Z,14.47
2023-05-09T06:40:29.605Z,13.26
2023-05-09T06:41:29.723Z,13.66
2023-05-09T06:42:29.656Z,13.60
2023-05-09T06:43:29.671Z,13.82
2023-05-09T06:44:29.670Z,12.70
2023-05-09T06:45:29.653Z,13.66
2023-05-09T06:46:29.733Z,12.28
2023-05-09T06:47:29.676Z,12.56
2023-05-09T06:48:29.779Z,12.68
2023-05-09T06:49:29.724Z,11.52
2023-05-09T06:50:31.437Z,10.86
2023-05-09T06:51:29.785Z,10.26
2023-05-09T06:52:29.757Z,11.17
2023-05-09T06:53:29.789Z,10.70
2023-05-09T06:54:29.775Z,10.94
2023-05-09T06:55:29.744Z,13.21
2023-05-09T06:56:29.721Z,11.57
2023-05-09T06:57:29.856Z,13.60
2023-05-09T06:58:29.902Z,12.06
2023-05-09T06:59:29.797Z,12.30
2023-05-09T07:00:29.691Z,9.93
2023-05-09T07:01:29.851Z,10.99
2023-05-09T07:02:29.696Z,10.66
2023-05-09T07:03:29.694Z,9.84
2023-05-09T07:04:29.669Z,11.31
2023-05-09T07:05:29.813Z,10.77
2023-05-09T07:06:29.662Z,9.10
2023-05-09T07:07:29.639Z,10.43
2023-05-09T07:08:29.636Z,10.26
2023-05-09T07:09:29.632Z,10.63
2023-05-09T07:10:29.657Z,9.89
2023-05-09T07:11:29.667Z,9.79
2023-05-09T07:12:29.632Z,10.28
2023-05-09T07:13:29.698Z,9.12
2023-05-09T07:14:29.842Z,9.04
2023-05-09T07:15:41.387Z,9.25
2023-05-09T07:16:30.677Z,10.52
2023-05-09T07:17:29.612Z,10.22
2023-05-09T07:18:29.598Z,10.26
2023-05-09T07:19:29.797Z,9.30
2023-05-09T07:20:29.574Z,10.45
2023-05-09T07:21:29.568Z,9.42
2023-05-09T07:22:31.760Z,9.28
2023-05-09T07:23:29.535Z,8.32
2023-05-09T07:24:29.811Z,9.26
2023-05-09T07:25:29.555Z,8.54
2023-05-09T07:26:29.554Z,10.86
2023-05-09T07:27:29.530Z,11.54
2023-05-09T07:28:29.507Z,11.90
2023-05-09T07:29:29.876Z,9.64
2023-05-09T07:30:29.512Z,10.67
2023-05-09T07:31:29.530Z,9.01
2023-05-09T07:32:29.527Z,8.86
2023-05-09T07:33:29.817Z,9.54
2023-05-09T07:34:29.845Z,8.96
2023-05-09T07:35:29.487Z,8.69
2023-05-09T07:36:29.458Z,7.54
2023-05-09T07:37:29.461Z,7.72
2023-05-09T07:38:29.805Z,6.96
2023-05-09T07:39:29.823Z,7.43
2023-05-09T07:40:29.429Z,6.77
2023-05-09T07:41:29.428Z,7.13
2023-05-09T07:42:29.420Z,5.99
2023-05-09T07:43:29.405Z,6.31
2023-05-09T07:44:29.403Z,6.13
2023-05-09T07:45:29.479Z,6.22
2023-05-09T07:46:29.419Z,5.24
2023-05-09T07:47:29.390Z,5.55
2023-05-09T07:48:29.370Z,5.71
2023-05-09T07:49:29.374Z,6.99
2023-05-09T07:50:29.344Z,5.00
2023-05-09T07:51:29.345Z,6.35
2023-05-09T07:52:29.329Z,6.13
2023-05-09T07:53:29.324Z,6.30
2023-05-09T07:54:29.804Z,5.50
2023-05-09T07:55:29.302Z,5.85
2023-05-09T07:56:29.299Z,5.53
2023-05-09T07:57:29.303Z,5.00
2023-05-09T07:58:29.301Z,5.45
2023-05-09T07:59:29.330Z,5.11
2023-05-09T08:00:29.271Z,4.35
2023-05-09T08:01:29.348Z,4.39
2023-05-09T08:02:29.444Z,5.04
2023-05-09T08:03:29.364Z,4.95
2023-05-09T08:04:29.327Z,5.02
2023-05-09T08:05:29.222Z,3.94
2023-05-09T08:06:29.236Z,3.71
2023-05-09T08:07:29.223Z,4.14
2023-05-09T08:08:29.214Z,4.05
2023-05-09T08:09:29.224Z,3.66
2023-05-09T08:10:29.194Z,3.64
2023-05-09T08:11:29.199Z,3.64
2023-05-09T08:12:29.187Z,3.14
2023-05-09T08:13:29.227Z,3.36
2023-05-09T08:14:29.162Z,2.96
2023-05-09T08:15:29.163Z,3.12
2023-05-09T08:16:29.297Z,2.81
2023-05-09T08:17:29.268Z,2.66
2023-05-09T08:18:29.313Z,2.47
2023-05-09T08:19:29.145Z,2.83
2023-05-09T08:20:29.128Z,2.88
2023-05-09T08:21:29.142Z,4.51
2023-05-09T08:22:29.201Z,4.43
2023-05-09T08:23:29.336Z,4.63
2023-05-09T08:24:29.330Z,4.22
2023-05-09T08:25:29.371Z,3.85
2023-05-09T08:26:29.424Z,3.92
2023-05-09T08:27:29.432Z,3.61
2023-05-09T08:28:29.454Z,3.38
2023-05-09T08:29:29.479Z,3.18
2023-05-09T08:30:29.476Z,2.96
2023-05-09T08:31:29.545Z,3.26
2023-05-09T08:32:29.583Z,3.11
2023-05-09T08:33:29.791Z,2.65
2023-05-09T08:34:29.647Z,2.88
2023-05-09T08:35:29.621Z,3.72
2023-05-09T08:36:29.679Z,4.32
2023-05-09T08:37:29.739Z,3.80
2023-05-09T08:38:29.778Z,5.01
2023-05-09T08:39:29.828Z,4.25
2023-05-09T08:40:29.803Z,4.21
2023-05-09T08:41:29.819Z,4.35
2023-05-09T08:42:29.816Z,3.95
2023-05-09T08:43:29.836Z,4.09
2023-05-09T08:44:30.319Z,4.59
2023-05-09T08:45:29.846Z,4.79
2023-05-09T08:46:29.867Z,4.78
2023-05-09T08:47:29.863Z,4.93
2023-05-09T08:48:29.826Z,4.46
2023-05-09T08:49:30.433Z,5.21
2023-05-09T08:50:29.854Z,4.77
2023-05-09T08:51:29.870Z,5.17
2023-05-09T08:52:29.904Z,5.10
2023-05-09T08:53:29.947Z,4.00
2023-05-09T08:54:30.357Z,5.21
2023-05-09T08:55:29.986Z,3.75
2023-05-09T08:56:30.055Z,4.88
2023-05-09T08:57:30.054Z,4.63
2023-05-09T08:58:30.095Z,4.67
2023-05-09T08:59:30.115Z,4.53
2023-05-09T09:00:30.140Z,4.77
2023-05-09T09:01:30.214Z,4.32
2023-05-09T09:02:30.264Z,3.84
2023-05-09T09:03:30.302Z,4.78
2023-05-09T09:04:30.903Z,3.19
2023-05-09T09:06:30.397Z,4.12
2023-05-09T09:07:31.284Z,4.95
2023-05-09T09:08:30.392Z,4.84
2023-05-09T09:09:30.361Z,4.64
2023-05-09T09:10:30.366Z,5.91
2023-05-09T09:11:30.349Z,4.71
2023-05-09T09:12:30.360Z,3.93
2023-05-09T09:13:30.492Z,3.96
2023-05-09T09:14:30.331Z,3.98
2023-05-09T09:15:30.326Z,4.07
2023-05-09T09:16:30.383Z,4.25
2023-05-09T09:17:30.475Z,3.38
2023-05-09T09:18:30.331Z,3.88
2023-05-09T09:19:30.311Z,4.03
2023-05-09T09:20:30.312Z,3.82
2023-05-09T09:21:30.384Z,3.09
2023-05-09T09:22:30.309Z,3.08
2023-05-09T09:23:30.285Z,3.19
2023-05-09T09:24:30.342Z,2.89
2023-05-09T09:25:30.272Z,2.83
2023-05-09T09:26:30.276Z,2.90
2023-05-09T09:27:30.285Z,2.88
2023-05-09T09:28:30.344Z,2.67
2023-05-09T09:29:30.356Z,3.12
2023-05-09T09:30:30.382Z,3.44
2023-05-09T09:31:30.467Z,2.69
2023-05-09T09:32:30.449Z,3.08
2023-05-09T09:33:30.443Z,2.47
2023-05-09T09:34:30.860Z,3.33
2023-05-09T09:35:30.477Z,3.24
2023-05-09T09:36:30.481Z,3.14
2023-05-09T09:37:30.566Z,2.78
2023-05-09T09:38:30.485Z,2.74
2023-05-09T09:39:30.864Z,3.16
2023-05-09T09:40:30.492Z,2.71
2023-05-09T09:41:30.474Z,2.40
2023-05-09T09:42:30.476Z,2.42
2023-05-09T09:43:30.509Z,2.29
2023-05-09T09:44:30.865Z,2.19
2023-05-09T09:45:30.586Z,2.01
2023-05-09T09:46:30.711Z,2.08
2023-05-09T09:47:30.697Z,1.61
2023-05-09T09:48:30.847Z,1.88
2023-05-09T09:49:30.857Z,1.67
2023-05-09T09:50:30.846Z,2.24
2023-05-09T09:51:30.884Z,1.60
2023-05-09T09:52:30.960Z,1.54
2023-05-09T09:53:31.125Z,1.64
2023-05-09T09:54:31.363Z,1.93
2023-05-09T09:55:31.111Z,2.17
2023-05-09T09:56:31.157Z,1.89
2023-05-09T09:57:31.335Z,1.91
2023-05-09T09:58:31.236Z,1.80
2023-05-09T09:59:31.311Z,1.44
2023-05-09T10:00:31.353Z,1.68
2023-05-09T10:01:31.469Z,1.59
2023-05-09T10:02:31.460Z,1.44
2023-05-09T10:03:31.474Z,1.35
2023-05-09T10:04:31.863Z,1.27
2023-05-09T10:05:31.573Z,1.71
2023-05-09T10:06:31.582Z,1.53
2023-05-09T10:07:31.653Z,1.34
2023-05-09T10:08:31.668Z,1.34
2023-05-09T10:09:31.791Z,1.70
2023-05-09T10:10:31.753Z,1.50
2023-05-09T10:11:31.775Z,1.75
2023-05-09T10:12:31.819Z,1.03
2023-05-09T10:13:31.903Z,1.32
2023-05-09T10:14:34.277Z,1.57
2023-05-09T10:15:41.469Z,1.17
2023-05-09T10:16:43.766Z,0.93
2023-05-09T10:17:33.008Z,1.43
2023-05-09T10:18:32.104Z,1.53
2023-05-09T10:19:32.374Z,1.60
2023-05-09T10:20:31.898Z,1.52
2023-05-09T10:21:33.874Z,1.90
2023-05-09T10:22:31.857Z,1.74
2023-05-09T10:23:31.862Z,2.31
2023-05-09T10:24:31.898Z,2.32
2023-05-09T10:25:31.931Z,2.18
2023-05-09T10:26:31.830Z,2.28
2023-05-09T10:27:31.830Z,1.87
2023-05-09T10:28:31.859Z,1.97
2023-05-09T10:29:31.946Z,1.90
2023-05-09T10:30:34.122Z,1.92
2023-05-09T10:31:32.069Z,1.71
2023-05-09T10:32:32.085Z,1.91
2023-05-09T10:33:32.133Z,1.50
2023-05-09T10:34:32.365Z,2.01
2023-05-09T10:35:32.269Z,1.80
2023-05-09T10:36:32.318Z,1.94
2023-05-09T10:37:33.566Z,1.50
2023-05-09T10:38:32.356Z,1.74
2023-05-09T10:39:32.416Z,1.69
2023-05-09T10:40:32.474Z,1.38
2023-05-09T10:41:32.523Z,1.76
2023-05-09T10:42:32.444Z,1.28
2023-05-09T10:43:32.609Z,1.75
2023-05-09T10:44:32.870Z,2.11
2023-05-09T10:45:32.454Z,1.75
2023-05-09T10:46:32.474Z,1.77
2023-05-09T10:47:32.585Z,1.28
2023-05-09T10:48:32.453Z,1.33
2023-05-09T10:49:34.347Z,1.58
2023-05-09T10:50:32.467Z,1.49
2023-05-09T10:51:32.468Z,1.59
2023-05-09T10:52:32.487Z,1.72
2023-05-09T10:53:32.456Z,1.82
2023-05-09T10:54:32.899Z,1.75
2023-05-09T10:55:32.431Z,1.90
2023-05-09T10:56:32.514Z,1.46
2023-05-09T10:57:32.542Z,1.47
2023-05-09T10:58:32.423Z,1.49
2023-05-09T10:59:32.904Z,1.43
2023-05-09T11:00:32.403Z,1.51
2023-05-09T11:01:32.418Z,1.26
2023-05-09T11:02:32.519Z,1.27
2023-05-09T11:03:32.438Z,1.21
2023-05-09T11:04:32.375Z,1.06
2023-05-09T11:05:32.383Z,1.17
2023-05-09T11:06:32.358Z,0.82
2023-05-09T11:07:32.353Z,0.89
2023-05-09T11:08:32.356Z,0.52
2023-05-09T11:09:32.355Z,0.86
2023-05-09T11:10:32.325Z,0.77
2023-05-09T11:11:32.339Z,0.78
2023-05-09T11:12:32.320Z,0.74
2023-05-09T11:13:32.437Z,0.74
2023-05-09T11:14:32.440Z,0.79
2023-05-09T11:15:32.379Z,0.79
2023-05-09T11:16:32.310Z,0.92
2023-05-09T11:17:32.307Z,1.22
2023-05-09T11:18:32.287Z,1.03
2023-05-09T11:19:32.399Z,1.08
2023-05-09T11:20:32.258Z,0.97
2023-05-09T11:21:32.266Z,1.33
2023-05-09T11:22:32.413Z,1.39
2023-05-09T11:23:32.230Z,1.32
2023-05-09T11:24:32.242Z,1.26
2023-05-09T11:25:32.210Z,1.01
2023-05-09T11:26:32.229Z,0.89
2023-05-09T11:27:32.215Z,0.82
2023-05-09T11:28:32.243Z,1.09
2023-05-09T11:29:32.283Z,1.10
2023-05-09T11:30:32.199Z,1.29
2023-05-09T11:31:32.232Z,0.93
2023-05-09T11:32:32.255Z,0.98
2023-05-09T11:33:32.163Z,0.93
2023-05-09T11:34:32.177Z,1.14
2023-05-09T11:35:32.176Z,0.87
2023-05-09T11:36:32.245Z,0.96
2023-05-09T11:37:32.283Z,0.94
2023-05-09T11:38:32.323Z,0.99
2023-05-09T11:39:32.417Z,0.89
2023-05-09T11:40:32.416Z,0.97
2023-05-09T11:41:32.464Z,1.18
2023-05-09T11:42:32.528Z,0.73
2023-05-09T11:43:32.549Z,1.01
2023-05-09T11:44:32.593Z,0.90
2023-05-09T11:45:32.847Z,0.99
2023-05-09T11:46:32.709Z,0.84
2023-05-09T11:47:32.726Z,0.87
2023-05-09T11:48:32.749Z,0.75
2023-05-09T11:49:32.802Z,0.76
2023-05-09T11:50:32.839Z,0.69
2023-05-09T11:51:32.895Z,1.00
2023-05-09T11:52:32.941Z,0.79
2023-05-09T11:53:32.950Z,0.82
2023-05-09T11:54:32.992Z,0.67
2023-05-09T11:55:33.028Z,0.76
2023-05-09T11:56:33.067Z,1.15
2023-05-09T11:57:33.116Z,0.51
2023-05-09T11:58:33.143Z,0.66
2023-05-09T11:59:33.188Z,0.76
2023-05-09T12:00:33.247Z,0.75
2023-05-09T12:01:33.273Z,1.12
2023-05-09T12:02:33.513Z,0.71
2023-05-09T12:03:33.412Z,0.78
2023-05-09T12:04:33.435Z,0.85
2023-05-09T12:05:33.435Z,0.46
2023-05-09T12:06:33.465Z,0.37
2023-05-09T12:07:33.505Z,0.85
2023-05-09T12:08:33.536Z,0.78
2023-05-09T12:09:33.570Z,0.85
2023-05-09T12:10:33.606Z,0.82
2023-05-09T12:11:33.645Z,0.78
2023-05-09T12:12:33.669Z,0.70
2023-05-09T12:13:33.715Z,0.84
2023-05-09T12:14:33.717Z,1.01
2023-05-09T12:15:33.750Z,0.53
2023-05-09T12:16:33.783Z,0.77
2023-05-09T12:17:33.878Z,0.55
2023-05-09T12:18:33.801Z,0.68
2023-05-09T12:19:33.815Z,1.02
2023-05-09T12:20:33.830Z,0.79
2023-05-09T12:21:33.837Z,0.67
2023-05-09T12:22:33.849Z,0.78
2023-05-09T12:23:33.876Z,0.83
2023-05-09T12:24:33.903Z,0.44
2023-05-09T12:25:33.912Z,0.47
2023-05-09T12:26:33.952Z,0.63
2023-05-09T12:27:33.941Z,0.68
2023-05-09T12:28:33.947Z,0.52
2023-05-09T12:29:33.934Z,0.46
2023-05-09T12:30:33.965Z,0.61
2023-05-09T12:31:33.949Z,1.11
2023-05-09T12:32:34.394Z,0.80
2023-05-09T12:33:34.034Z,0.46
2023-05-09T12:34:33.966Z,0.61
2023-05-09T12:35:33.982Z,0.75
2023-05-09T12:36:33.970Z,0.60
2023-05-09T12:37:33.968Z,0.70
2023-05-09T12:38:33.971Z,0.65
2023-05-09T12:39:33.977Z,0.56
2023-05-09T12:40:33.988Z,0.70
2023-05-09T12:41:39.517Z,0.57
2023-05-09T12:42:34.989Z,0.47
2023-05-09T12:43:33.984Z,0.46
2023-05-09T12:44:33.960Z,0.72
2023-05-09T12:45:33.985Z,0.67
2023-05-09T12:46:35.632Z,0.63
2023-05-09T12:47:33.971Z,0.64
2023-05-09T12:48:33.947Z,0.42
2023-05-09T12:49:33.996Z,0.41
2023-05-09T12:50:33.934Z,0.80
2023-05-09T12:51:33.918Z,0.53
2023-05-09T12:52:33.890Z,0.78
2023-05-09T12:53:33.889Z,0.42
2023-05-09T12:54:33.900Z,0.46
2023-05-09T12:55:33.888Z,0.72
2023-05-09T12:56:33.894Z,0.67
2023-05-09T12:57:33.868Z,0.54
2023-05-09T12:58:33.866Z,0.76
2023-05-09T12:59:33.867Z,0.52
2023-05-09T13:00:33.868Z,0.44
2023-05-09T13:01:33.868Z,0.69
2023-05-09T13:02:33.901Z,0.65
2023-05-09T13:03:33.832Z,0.44
2023-05-09T13:04:33.828Z,0.41
2023-05-09T13:05:33.825Z,0.80
2023-05-09T13:06:33.802Z,0.73
2023-05-09T13:07:33.807Z,0.48
2023-05-09T13:08:33.781Z,0.90
2023-05-09T13:09:33.786Z,0.72
2023-05-09T13:10:33.817Z,0.62
2023-05-09T13:11:33.793Z,0.63
2023-05-09T13:12:33.764Z,0.31
2023-05-09T13:13:33.762Z,0.47
2023-05-09T13:14:33.804Z,0.58
2023-05-09T13:15:33.820Z,0.56
2023-05-09T13:16:33.753Z,0.53